Time;durP1;ratioP1;P1;durP2;ratioP2;P2;SDS_P1;SDS_P2;PMS_P1;PMS_P2;Temp;Humidity;BMP_temperature;BMP_pressure;BME280_temperature;BME280_humidity;BME280_pressure;Samples;Min_cycle;Max_cycle;Signal;HPM_P1;HPM_P2
2022/04/14 00:02:43;;;;;;;43.13;22.73;;;;;;;8.40;52.09;100597.55;1957851;90;33402;-62
2022/04/14 00:05:46;;;;;;;38.38;21.77;;;;;;;8.42;52.04;100598.86;1958191;90;29349;-67
2022/04/14 00:08:49;;;;;;;35.85;20.95;;;;;;;8.41;52.09;100599.30;1936768;91;27767;-63
2022/04/14 00:11:52;;;;;;;44.55;23.92;;;;;;;8.40;52.04;100602.04;1954793;91;28736;-62
2022/04/14 00:14:54;;;;;;;34.00;21.27;;;;;;;8.40;52.04;100602.04;1953499;91;32281;-62
2022/04/14 00:17:58;;;;;;;37.00;22.42;;;;;;;8.38;51.96;100600.73;1945925;91;33549;-60
2022/04/14 00:21:00;;;;;;;40.83;21.48;;;;;;;8.36;52.10;100601.25;1973172;90;30627;-61
2022/04/14 00:24:03;;;;;;;37.95;21.87;;;;;;;8.33;52.15;100602.24;1964149;90;27749;-61
2022/04/14 00:27:06;;;;;;;36.68;20.82;;;;;;;8.30;52.17;100602.34;1935915;90;29511;-61
2022/04/14 00:30:10;;;;;;;29.80;19.92;;;;;;;8.27;52.13;100601.15;1919715;91;31238;-61
2022/04/14 00:33:12;;;;;;;28.92;17.37;;;;;;;8.26;52.29;100601.19;1904020;91;33815;-61
2022/04/14 00:36:17;;;;;;;39.23;22.37;;;;;;;8.21;52.25;100604.88;1934120;92;30634;-62
2022/04/14 00:39:19;;;;;;;36.48;20.92;;;;;;;8.17;52.32;100610.38;1935193;92;27893;-63
2022/04/14 00:42:21;;;;;;;36.17;20.50;;;;;;;8.11;52.40;100610.14;1990466;88;30059;-65
2022/04/14 00:45:24;;;;;;;36.55;21.97;;;;;;;8.05;52.51;100612.55;2036342;87;31164;-67
2022/04/14 00:48:27;;;;;;;37.88;22.25;;;;;;;7.99;52.68;100606.56;2067786;84;34032;-62
2022/04/14 00:51:30;;;;;;;32.78;19.95;;;;;;;7.93;52.65;100601.42;2091083;85;30149;-62
2022/04/14 00:54:33;;;;;;;33.78;20.72;;;;;;;7.87;52.89;100609.17;2090783;85;27660;-61
2022/04/14 00:57:35;;;;;;;41.33;23.70;;;;;;;7.80;52.96;100607.63;2083159;85;28652;-63
2022/04/14 01:00:36;;;;;;;39.95;23.20;;;;;;;7.72;53.19;100607.88;2055531;86;32273;-69
2022/04/14 01:03:40;;;;;;;36.45;22.40;;;;;;;7.63;53.43;100607.71;2067805;86;33425;-64
2022/04/14 01:06:43;;;;;;;36.90;21.75;;;;;;;7.55;53.49;100607.96;2084813;85;30133;-61
2022/04/14 01:09:46;;;;;;;35.38;21.87;;;;;;;7.48;53.75;100605.09;2082192;85;27686;-61
2022/04/14 01:12:50;;;;;;;39.58;22.93;;;;;;;7.42;53.81;100604.84;2068620;85;29236;-64
2022/04/14 01:15:59;;;;;;;37.20;22.87;;;;;;;7.38;53.84;100599.19;2090731;85;31471;-62
2022/04/14 01:19:01;;;;;;;37.38;23.85;;;;;;;7.33;53.88;100601.11;2066731;85;33018;-61
2022/04/14 01:22:09;;;;;;;36.20;21.77;;;;;;;7.29;54.03;100598.12;2075800;85;30029;-62
2022/04/14 01:25:11;;;;;;;39.83;23.65;;;;;;;7.24;54.24;100594.75;2046882;85;27649;-61
2022/04/14 01:28:13;;;;;;;44.93;23.62;;;;;;;7.18;54.24;100599.81;2091978;85;29861;-62
2022/04/14 01:31:15;;;;;;;42.03;24.02;;;;;;;7.15;54.50;100606.09;2069552;85;32415;-61
2022/04/14 01:34:17;;;;;;;35.80;22.67;;;;;;;7.12;54.39;100607.51;2072218;85;34365;-61
2022/04/14 01:37:20;;;;;;;35.25;22.27;;;;;;;7.10;54.59;100614.70;2082224;84;29946;-62
2022/04/14 01:40:22;;;;;;;33.10;22.60;;;;;;;7.08;54.62;100617.88;2107641;84;27708;-62
2022/04/14 01:43:24;;;;;;;39.38;22.55;;;;;;;7.04;54.76;100613.98;2100635;84;29493;-61
2022/04/14 01:46:26;;;;;;;37.48;23.32;;;;;;;6.99;54.92;100609.70;2075569;85;32243;-62
2022/04/14 01:49:28;;;;;;;38.33;23.25;;;;;;;6.94;54.96;100617.41;2060481;86;34536;-62
2022/04/14 01:52:30;;;;;;;36.25;23.02;;;;;;;6.88;55.00;100617.58;2070280;86;30550;-62
2022/04/14 01:55:32;;;;;;;37.98;22.85;;;;;;;6.84;55.12;100611.48;2072005;85;28311;-62
2022/04/14 01:58:34;;;;;;;38.85;23.47;;;;;;;6.78;55.37;100604.55;2071285;85;28571;-62
2022/04/14 02:01:36;;;;;;;37.67;23.12;;;;;;;6.75;55.26;100599.74;2078762;85;31833;-61
2022/04/14 02:04:38;;;;;;;37.38;23.32;;;;;;;6.73;55.38;100599.80;2091142;85;33116;-65
2022/04/14 02:07:39;;;;;;;36.20;22.70;;;;;;;6.71;55.35;100598.97;2070733;86;29902;-65
2022/04/14 02:10:42;;;;;;;39.55;24.20;;;;;;;6.69;55.50;100599.47;2070775;86;28188;-63
2022/04/14 02:13:44;;;;;;;36.65;22.48;;;;;;;6.65;55.54;100597.80;2060042;85;29472;-63
2022/04/14 02:16:45;;;;;;;39.27;23.27;;;;;;;6.60;55.89;100597.94;2057618;85;31602;-62
2022/04/14 02:19:47;;;;;;;41.23;23.52;;;;;;;6.57;56.13;100594.03;2050698;86;34338;-62
2022/04/14 02:22:49;;;;;;;38.78;22.70;;;;;;;6.55;56.37;100590.53;2050774;86;30576;-67
2022/04/14 02:25:51;;;;;;;39.95;22.90;;;;;;;6.54;56.45;100588.78;2048762;86;27707;-65
2022/04/14 02:28:54;;;;;;;42.85;23.12;;;;;;;6.53;56.48;100585.73;2048998;86;29794;-62
2022/04/14 02:31:57;;;;;;;39.27;23.25;;;;;;;6.54;56.61;100587.45;2049271;86;32221;-61
2022/04/14 02:35:00;;;;;;;42.00;24.30;;;;;;;6.53;56.50;100588.41;2034673;86;33274;-62
2022/04/14 02:38:02;;;;;;;39.58;21.80;;;;;;;6.53;56.50;100585.73;2016446;88;29351;-63
2022/04/14 02:41:03;;;;;;;41.73;24.02;;;;;;;6.51;56.66;100583.10;2016665;88;27593;-62
2022/04/14 02:44:05;;;;;;;43.95;23.75;;;;;;;6.47;56.90;100584.09;2016624;86;29073;-66
2022/04/14 02:47:08;;;;;;;40.85;24.05;;;;;;;6.42;56.79;100579.38;2050554;86;32384;-61
2022/04/14 02:50:10;;;;;;;37.65;22.90;;;;;;;6.40;56.83;100574.55;2050182;86;33401;-63
2022/04/14 02:53:12;;;;;;;41.98;24.77;;;;;;;6.38;56.90;100574.58;2050924;86;30523;-62
2022/04/14 02:56:14;;;;;;;43.70;25.08;;;;;;;6.34;56.90;100564.96;2029068;86;27734;-62
2022/04/14 02:59:16;;;;;;;45.10;24.87;;;;;;;6.33;56.85;100568.53;2047835;86;29884;-62
2022/04/14 03:02:18;;;;;;;42.40;24.10;;;;;;;6.34;56.64;100573.39;2050767;86;32430;-62
2022/04/14 03:05:20;;;;;;;50.05;25.50;;;;;;;6.35;56.73;100579.13;2050698;86;33904;-61
2022/04/14 03:08:22;;;;;;;48.83;26.23;;;;;;;6.36;56.83;100579.10;2051192;86;29270;-62
2022/04/14 03:11:24;;;;;;;60.58;26.33;;;;;;;6.34;56.61;100578.27;2051050;86;27580;-61
2022/04/14 03:14:26;;;;;;;43.95;25.35;;;;;;;6.34;56.57;100578.70;2050514;86;29463;-62
2022/04/14 03:17:28;;;;;;;38.50;23.05;;;;;;;6.33;56.61;100571.64;2050884;86;31701;-63
2022/04/14 03:20:29;;;;;;;45.98;25.50;;;;;;;6.31;56.73;100577.02;2049791;86;33335;-66
2022/04/14 03:23:31;;;;;;;42.03;25.37;;;;;;;6.29;56.59;100568.67;2051029;86;30191;-61
2022/04/14 03:26:33;;;;;;;42.43;23.77;;;;;;;6.29;56.63;100570.86;2051102;86;27832;-63
2022/04/14 03:29:35;;;;;;;43.35;23.00;;;;;;;6.30;56.64;100577.92;2051143;86;29855;-68
2022/04/14 03:32:43;;;;;;;36.53;22.85;;;;;;;6.27;56.60;100564.70;2048414;86;31099;-64
2022/04/14 03:35:46;;;;;;;42.80;24.27;;;;;;;6.23;56.78;100563.03;2050978;86;33640;-61
2022/04/14 03:38:49;;;;;;;38.38;23.38;;;;;;;6.22;56.61;100562.61;2050683;86;29359;-61
2022/04/14 03:41:50;;;;;;;41.25;24.67;;;;;;;6.19;56.59;100560.92;2050093;86;27638;-61
2022/04/14 03:44:53;;;;;;;42.03;23.70;;;;;;;6.17;56.71;100554.77;2050690;86;29545;-63
2022/04/14 03:47:56;;;;;;;48.80;24.98;;;;;;;6.18;56.63;100555.19;2050686;86;32295;-62
2022/04/14 03:50:58;;;;;;;42.60;23.67;;;;;;;6.17;56.60;100553.91;2050970;86;32798;-62
2022/04/14 03:54:00;;;;;;;45.80;24.47;;;;;;;6.16;56.53;100565.47;2050072;86;29752;-62
2022/04/14 03:57:01;;;;;;;43.75;23.75;;;;;;;6.13;56.62;100558.42;2051165;86;27670;-61
2022/04/14 04:00:06;;;;;;;44.95;23.15;;;;;;;6.11;56.56;100555.39;2049525;86;29129;-62
2022/04/14 04:03:12;;;;;;;49.35;24.67;;;;;;;6.08;56.59;100552.37;2050918;86;31023;-62
2022/04/14 04:06:14;;;;;;;46.20;24.57;;;;;;;6.08;56.64;100549.71;2050850;86;32942;-62
2022/04/14 04:09:16;;;;;;;43.83;24.23;;;;;;;6.08;56.62;100551.05;2051108;86;30674;-65
2022/04/14 04:12:19;;;;;;;39.08;22.73;;;;;;;6.09;56.64;100554.12;2021543;86;27766;-63
2022/04/14 04:15:21;;;;;;;41.00;24.27;;;;;;;6.12;56.51;100554.05;2048717;86;28670;-61
2022/04/14 04:18:23;;;;;;;38.70;21.00;;;;;;;6.16;56.43;100555.68;2049529;86;32279;-60
2022/04/14 04:21:27;;;;;;;42.25;23.57;;;;;;;6.19;56.37;100547.62;2050601;86;33443;-60
2022/04/14 04:24:29;;;;;;;40.00;22.52;;;;;;;6.24;56.29;100547.48;2051020;86;29388;-61
2022/04/14 04:27:31;;;;;;;39.30;23.10;;;;;;;6.30;56.20;100553.09;2050462;86;27800;-61
2022/04/14 04:30:33;;;;;;;44.77;24.05;;;;;;;6.39;56.16;100552.85;2046191;86;29352;-61
2022/04/14 04:33:35;;;;;;;44.77;24.05;;;;;;;6.45;56.17;100552.69;2027911;86;31246;-61
2022/04/14 04:36:37;;;;;;;50.35;23.77;;;;;;;6.55;56.09;100550.61;2050520;86;33522;-61
2022/04/14 04:39:39;;;;;;;42.60;25.12;;;;;;;6.65;56.01;100546.78;2050555;86;30577;-60
2022/04/14 04:42:41;;;;;;;51.13;28.23;;;;;;;6.78;56.18;100546.41;2051390;86;27664;-60
2022/04/14 04:45:45;;;;;;;39.85;23.57;;;;;;;6.89;56.02;100540.28;2059041;85;28796;-61
2022/04/14 04:48:46;;;;;;;38.67;22.55;;;;;;;7.00;55.71;100533.30;2031851;86;31500;-61
2022/04/14 04:51:48;;;;;;;46.90;23.47;;;;;;;7.14;55.51;100534.22;2047002;86;33893;-62
2022/04/14 04:54:50;;;;;;;45.73;24.30;;;;;;;7.27;55.22;100530.23;2063387;85;29361;-62
2022/04/14 04:57:51;;;;;;;40.38;21.27;;;;;;;7.43;54.87;100531.06;2065527;85;27701;-61
2022/04/14 05:00:53;;;;;;;38.02;22.02;;;;;;;7.62;54.95;100533.12;2053361;86;29916;-63
2022/04/14 05:03:55;;;;;;;37.40;22.85;;;;;;;7.82;54.76;100537.32;2035795;87;31382;-61
2022/04/14 05:06:57;;;;;;;36.75;21.82;;;;;;;8.01;54.48;100532.20;2033884;87;33462;-61
2022/04/14 05:10:00;;;;;;;38.92;20.77;;;;;;;8.23;54.28;100539.90;2031141;87;30111;-63
2022/04/14 05:13:02;;;;;;;34.63;21.50;;;;;;;8.48;54.08;100538.57;2030828;87;27740;-66
2022/04/14 05:16:06;;;;;;;36.73;21.00;;;;;;;8.77;53.62;100545.98;2030757;87;29085;-62
2022/04/14 05:19:08;;;;;;;42.40;21.97;;;;;;;9.02;53.36;100543.19;2035341;85;31092;-61
2022/04/14 05:22:11;;;;;;;38.25;20.37;;;;;;;9.23;53.03;100548.17;2054892;85;33167;-62
2022/04/14 05:25:14;;;;;;;38.33;21.10;;;;;;;9.41;52.97;100549.22;2064071;85;30501;-65
2022/04/14 05:28:16;;;;;;;40.50;21.33;;;;;;;9.57;52.36;100552.59;2004852;88;27678;-68
2022/04/14 05:31:18;;;;;;;32.90;20.35;;;;;;;9.70;52.16;100549.81;2065889;85;29879;-63
2022/04/14 05:34:20;;;;;;;40.63;21.42;;;;;;;9.84;52.08;100552.39;2071285;85;32316;-62
2022/04/14 05:37:22;;;;;;;36.53;21.23;;;;;;;9.98;51.79;100547.77;2050359;85;33516;-62
2022/04/14 05:40:24;;;;;;;35.40;21.48;;;;;;;10.12;51.77;100552.53;2035581;87;29474;-62
2022/04/14 05:43:27;;;;;;;42.93;21.82;;;;;;;10.30;51.78;100541.47;2036075;87;27744;-65
2022/04/14 05:46:29;;;;;;;39.30;21.87;;;;;;;10.48;51.27;100544.69;2073037;85;29900;-63
2022/04/14 05:49:32;;;;;;;41.28;21.65;;;;;;;10.74;50.91;100553.36;2074433;85;30865;-62
2022/04/14 05:52:34;;;;;;;42.88;21.65;;;;;;;11.06;50.65;100544.27;2091923;85;33752;-62
2022/04/14 05:55:36;;;;;;;32.38;20.30;;;;;;;11.39;49.79;100544.92;2091497;85;30135;-61
2022/04/14 05:58:38;;;;;;;47.75;24.60;;;;;;;11.64;49.87;100545.02;2067861;85;27746;-61
2022/04/14 06:01:40;;;;;;;32.05;21.42;;;;;;;11.88;49.18;100550.11;2060345;86;28543;-61
2022/04/14 06:04:41;;;;;;;46.85;20.70;;;;;;;12.13;49.14;100551.55;2068130;86;31762;-62
2022/04/14 06:07:44;;;;;;;33.15;20.27;;;;;;;12.44;48.55;100551.27;2067790;86;33771;-61
2022/04/14 06:10:45;;;;;;;35.70;20.95;;;;;;;12.82;48.48;100543.44;2066927;86;29755;-62
2022/04/14 06:13:47;;;;;;;34.30;21.65;;;;;;;13.24;48.21;100550.03;2086904;84;27737;-66
2022/04/14 06:16:50;;;;;;;36.45;21.55;;;;;;;13.77;48.04;100546.55;2104182;84;28842;-64
2022/04/14 06:19:53;;;;;;;33.15;21.68;;;;;;;14.28;46.96;100543.52;2073816;85;32171;-63
2022/04/14 06:22:58;;;;;;;39.58;21.48;;;;;;;14.63;46.63;100543.62;2070391;86;32086;-63
2022/04/14 06:26:00;;;;;;;;;;;;;;;15.02;46.35;100541.22;2088072;84;30543;-63
2022/04/14 06:29:04;;;;;;;33.55;21.62;;;;;;;15.57;45.70;100539.41;2092196;84;27606;-63
2022/04/14 06:32:08;;;;;;;36.00;22.17;;;;;;;16.13;45.83;100532.98;2070774;85;30219;-61
2022/04/14 06:35:13;;;;;;;33.83;22.15;;;;;;;16.68;45.50;100536.84;2070661;85;31127;-62
2022/04/14 06:38:19;;;;;;;38.10;22.65;;;;;;;17.25;44.63;100529.14;2070614;85;33708;-61
2022/04/14 06:41:25;;;;;;;33.50;23.62;;;;;;;17.79;43.93;100526.95;2095567;84;29779;-67
2022/04/14 06:44:30;;;;;;;34.58;23.12;;;;;;;18.19;43.69;100531.53;2080400;84;27666;-64
2022/04/14 06:47:36;;;;;;;35.33;21.95;;;;;;;18.68;42.93;100526.80;2098401;84;28749;-68
2022/04/14 06:50:45;;;;;;;34.75;21.82;;;;;;;19.12;42.31;100524.67;2098958;84;31074;-62
2022/04/14 06:53:48;;;;;;;39.40;22.30;;;;;;;19.51;41.74;100519.64;2054406;85;33811;-61
2022/04/14 06:56:49;;;;;;;42.93;21.55;;;;;;;19.82;41.21;100518.40;2050806;86;30541;-62
2022/04/14 06:59:51;;;;;;;39.53;22.90;;;;;;;20.13;40.54;100517.63;2037089;86;27655;-63
2022/04/14 07:02:55;;;;;;;42.00;21.65;;;;;;;20.40;39.84;100525.24;2071578;85;28549;-60
2022/04/14 07:06:00;;;;;;;41.83;21.27;;;;;;;20.67;39.77;100521.09;2070972;85;31052;-61
2022/04/14 07:09:00;;;;;;;34.35;21.23;;;;;;;20.86;38.88;100514.00;2074066;85;34183;-62
2022/04/14 07:12:04;;;;;;;30.85;22.07;;;;;;;20.96;38.91;100512.20;2073710;84;29430;-62
2022/04/14 07:15:07;;;;;;;31.67;19.80;;;;;;;21.09;38.49;100512.80;2069432;85;27969;-61
2022/04/14 07:18:09;;;;;;;32.17;19.85;;;;;;;21.35;38.35;100509.53;2036473;86;29508;-62
2022/04/14 07:21:11;;;;;;;31.55;19.95;;;;;;;21.63;38.00;100500.21;2027016;87;31033;-61
2022/04/14 07:24:13;;;;;;;29.90;20.23;;;;;;;21.97;36.62;100497.52;2075549;85;32880;-65
2022/04/14 07:27:20;;;;;;;33.88;20.55;;;;;;;22.21;37.17;100487.48;2076030;85;30112;-64
2022/04/14 07:30:24;;;;;;;30.12;19.67;;;;;;;22.51;36.77;100480.61;2060542;85;27582;-62
2022/04/14 07:33:27;;;;;;;39.35;20.30;;;;;;;22.76;36.45;100486.73;2050705;85;31498;-66
2022/04/14 07:36:29;;;;;;;24.75;17.90;;;;;;;22.90;36.23;100488.63;2077790;85;31882;-64
2022/04/14 07:39:32;;;;;;;24.82;18.32;;;;;;;23.09;35.75;100484.91;2042575;85;33085;-64
2022/04/14 07:42:40;;;;;;;24.75;17.37;;;;;;;23.16;35.45;100479.69;2061208;86;29420;-63
2022/04/14 07:45:45;;;;;;;26.07;17.10;;;;;;;23.31;34.54;100478.69;2046698;85;27731;-63
2022/04/14 07:48:48;;;;;;;31.85;17.10;;;;;;;23.31;35.10;100482.27;2061554;86;29957;-63
2022/04/14 07:51:50;;;;;;;29.85;18.98;;;;;;;23.59;35.11;100488.18;2047967;86;31053;-66
2022/04/14 07:54:53;;;;;;;28.25;17.95;;;;;;;23.82;35.01;100489.42;2047835;86;33855;-64
2022/04/14 07:58:07;;;;;;;23.30;16.57;;;;;;;24.03;34.60;100482.75;2049342;86;29620;-63
2022/04/14 08:01:10;;;;;;;24.70;15.93;;;;;;;24.19;34.29;100475.17;2048334;86;27729;-68
2022/04/14 08:04:14;;;;;;;25.80;17.00;;;;;;;24.42;34.17;100487.80;2048169;86;28641;-67
2022/04/14 08:07:17;;;;;;;27.32;16.97;;;;;;;24.65;34.02;100488.62;2047220;86;31718;-62
2022/04/14 08:10:21;;;;;;;22.75;16.90;;;;;;;24.85;33.75;100481.52;2048271;86;33633;-64
2022/04/14 08:13:27;;;;;;;29.30;16.40;;;;;;;25.06;33.59;100487.95;2050234;86;29329;-64
2022/04/14 08:16:27;;;;;;;24.43;16.07;;;;;;;25.16;33.13;100479.05;2047854;86;27724;-66
2022/04/14 08:19:30;;;;;;;21.80;15.90;;;;;;;25.36;32.97;100488.36;2030978;86;28749;-63
2022/04/14 08:22:52;;;;;;;25.77;17.35;;;;;;;25.50;32.77;100486.84;2042178;86;32136;-65
2022/04/14 08:25:54;;;;;;;22.02;16.82;;;;;;;25.70;32.76;100482.41;2037492;86;33052;-63
2022/04/14 08:28:58;;;;;;;23.30;16.67;;;;;;;25.86;32.31;100477.45;2016681;86;29383;-64
2022/04/14 08:32:03;;;;;;;25.17;16.13;;;;;;;25.84;31.73;100469.90;2033563;86;27732;-62
2022/04/14 08:35:06;;;;;;;23.90;16.30;;;;;;;25.83;31.36;100466.81;2035044;86;28804;-61
2022/04/14 08:38:08;;;;;;;19.65;14.30;;;;;;;25.75;31.56;100471.78;2041879;86;31279;-61
2022/04/14 08:41:17;;;;;;;22.95;14.25;;;;;;;25.70;31.31;100464.08;2043711;86;33032;-66
2022/04/14 08:44:19;;;;;;;19.85;13.60;;;;;;;25.62;31.03;100462.69;2059346;86;29537;-62
2022/04/14 08:47:23;;;;;;;23.65;13.68;;;;;;;25.44;30.85;100463.70;2064756;84;27710;-62
2022/04/14 08:50:25;;;;;;;22.05;14.47;;;;;;;25.39;31.21;100458.36;2044342;87;28725;-62
2022/04/14 08:53:27;;;;;;;24.05;13.08;;;;;;;25.31;31.30;100460.58;2054566;85;31121;-62
2022/04/14 08:56:31;;;;;;;17.73;10.55;;;;;;;25.26;30.90;100460.21;2078303;85;32975;-63
2022/04/14 08:59:35;;;;;;;15.72;10.80;;;;;;;25.21;30.48;100451.13;2043629;85;29326;-62
2022/04/14 09:02:37;;;;;;;19.30;10.65;;;;;;;25.10;30.29;100450.09;2042528;85;27708;-61
2022/04/14 09:05:40;;;;;;;14.55;10.30;;;;;;;25.01;30.92;100454.69;2066733;86;29496;-63
2022/04/14 09:08:44;;;;;;;18.23;10.90;;;;;;;24.97;30.67;100454.67;2067323;85;31657;-62
2022/04/14 09:11:46;;;;;;;18.93;9.90;;;;;;;24.94;30.72;100447.65;2078312;85;33433;-62
2022/04/14 09:14:49;;;;;;;17.50;10.23;;;;;;;24.88;29.98;100451.92;2069736;85;30103;-62
2022/04/14 09:17:51;;;;;;;17.30;9.70;;;;;;;24.78;30.43;100452.55;2041337;85;27714;-65
2022/04/14 09:21:03;;;;;;;14.98;8.48;;;;;;;24.83;30.46;100450.19;2077980;85;29580;-62
2022/04/14 09:24:05;;;;;;;15.28;7.70;;;;;;;24.89;30.19;100444.55;2078375;85;31024;-62
2022/04/14 09:27:08;;;;;;;21.05;7.15;;;;;;;25.00;30.29;100448.86;2078526;85;33018;-65
2022/04/14 09:30:10;;;;;;;12.35;8.13;;;;;;;25.10;30.01;100441.86;2078293;85;28765;-62
2022/04/14 09:33:16;;;;;;;13.13;7.22;;;;;;;25.14;29.58;100440.52;2049539;85;27688;-64
2022/04/14 09:36:20;;;;;;;12.10;6.17;;;;;;;25.08;29.73;100443.38;2065078;85;28710;-62
2022/04/14 09:39:22;;;;;;;9.43;6.27;;;;;;;25.01;29.42;100436.34;2068031;85;31987;-62
2022/04/14 09:42:30;;;;;;;10.18;5.72;;;;;;;24.96;29.61;100441.49;2068151;85;34163;-61
2022/04/14 09:45:33;;;;;;;8.03;6.25;;;;;;;24.85;29.80;100435.80;2042270;85;29496;-63
2022/04/14 09:48:36;;;;;;;10.85;6.97;;;;;;;24.78;29.67;100433.90;2067089;85;28304;-64
2022/04/14 09:51:44;;;;;;;8.73;6.12;;;;;;;24.73;29.76;100432.50;2046359;85;29539;-64
2022/04/14 09:54:48;;;;;;;10.43;6.47;;;;;;;24.68;29.51;100427.15;2067032;85;31031;-62
2022/04/14 09:58:16;;;;;;;9.75;6.22;;;;;;;24.54;29.54;100423.14;2065780;85;33041;-64
2022/04/14 10:01:20;;;;;;;11.28;6.40;;;;;;;24.44;29.48;100427.37;2066770;85;30673;-63
2022/04/14 10:04:32;;;;;;;9.30;6.00;;;;;;;24.37;29.68;100425.81;2065233;85;27655;-64
2022/04/14 10:07:34;;;;;;;12.50;5.90;;;;;;;24.27;29.53;100416.34;2061626;85;29239;-64
2022/04/14 10:10:43;;;;;;;10.10;5.97;;;;;;;24.21;29.67;100413.41;2068225;85;31935;-65
2022/04/14 10:13:45;;;;;;;12.85;6.10;;;;;;;24.19;29.36;100414.08;2066864;85;33207;-69
2022/04/14 10:16:47;;;;;;;12.00;6.58;;;;;;;24.11;29.97;100420.36;2064670;85;30226;-64
2022/04/14 10:19:52;;;;;;;10.98;6.00;;;;;;;24.05;29.89;100413.66;2067011;85;27786;-63
2022/04/14 10:22:54;;;;;;;8.95;5.58;;;;;;;24.01;29.90;100414.16;2069889;85;28849;-63
2022/04/14 10:25:56;;;;;;;10.45;5.95;;;;;;;23.94;29.46;100418.02;2071377;85;32196;-64
2022/04/14 10:29:00;;;;;;;11.38;5.65;;;;;;;23.81;29.69;100405.63;2070554;85;33920;-63
2022/04/14 10:32:03;;;;;;;9.43;6.35;;;;;;;23.74;29.33;100407.80;2068603;85;29393;-66
2022/04/14 10:35:08;;;;;;;8.80;6.10;;;;;;;23.63;29.36;100407.02;2070546;85;27667;-64
2022/04/14 10:38:34;;;;;;;8.45;4.92;;;;;;;23.49;29.37;100404.36;2068927;85;28727;-64
2022/04/14 10:41:40;;;;;;;10.05;6.80;;;;;;;23.44;29.72;100409.92;2069082;85;31194;-65
2022/04/14 10:44:48;;;;;;;15.60;6.33;;;;;;;23.45;29.69;100397.98;2066168;85;34322;-63
2022/04/14 10:47:57;;;;;;;10.58;5.75;;;;;;;23.45;29.73;100398.85;2069101;85;30501;-62
2022/04/14 10:51:29;;;;;;;10.13;5.15;;;;;;;23.36;29.20;100396.55;2065643;85;27742;-73
2022/04/14 10:54:59;;;;;;;10.03;5.20;;;;;;;23.28;29.70;100395.63;2066751;85;29756;-64
2022/04/14 10:58:01;;;;;;;8.63;5.15;;;;;;;23.21;29.78;100392.14;2066688;85;31072;-64
2022/04/14 11:01:03;;;;;;;11.95;4.83;;;;;;;23.20;30.19;100389.05;2068848;85;34217;-65
2022/04/14 11:04:26;;;;;;;11.40;6.70;;;;;;;23.23;29.84;100388.39;2070127;85;29334;-62
2022/04/14 11:07:32;;;;;;;7.10;5.22;;;;;;;23.19;29.89;100384.56;1950045;89;27837;-60
2022/04/14 11:10:34;;;;;;;10.72;5.90;;;;;;;23.16;30.24;100381.30;1968249;89;29611;-65
2022/04/14 11:13:56;;;;;;;9.03;5.90;;;;;;;23.17;30.18;100387.12;1940423;91;31633;-59
2022/04/14 11:16:59;;;;;;;6.92;5.45;;;;;;;23.18;30.26;100380.64;1974657;90;34018;-60
2022/04/14 11:20:35;;;;;;;10.15;6.00;;;;;;;23.21;30.12;100383.09;1974456;90;30682;-58
2022/04/14 11:23:39;;;;;;;14.07;6.80;;;;;;;23.18;29.96;100374.65;1912930;92;27788;-58
2022/04/14 11:26:40;;;;;;;10.80;5.50;;;;;;;23.15;30.03;100383.67;1921286;91;29512;-58
2022/04/14 11:29:49;;;;;;;8.90;5.47;;;;;;;23.15;30.13;100383.67;1936898;91;31954;-59
2022/04/14 11:32:51;;;;;;;6.80;4.67;;;;;;;23.12;30.22;100373.93;1942745;91;33237;-58
2022/04/14 11:35:53;;;;;;;6.17;4.95;;;;;;;23.07;29.87;100370.80;1936837;91;30244;-59
2022/04/14 11:39:04;;;;;;;12.03;8.43;;;;;;;23.03;29.69;100371.63;1942262;91;28290;-58
2022/04/14 11:42:11;;;;;;;6.72;5.40;;;;;;;23.01;30.02;100367.31;1918966;90;28674;-59
2022/04/14 11:45:12;;;;;;;12.18;6.67;;;;;;;23.00;30.09;100369.72;2017877;85;31064;-58
2022/04/14 11:48:16;;;;;;;10.32;6.40;;;;;;;22.97;30.08;100370.03;2051982;85;33846;-58
2022/04/14 11:51:18;;;;;;;11.43;6.45;;;;;;;22.96;30.21;100362.84;2035636;85;30092;-58
2022/04/14 11:54:33;;;;;;;9.40;5.92;;;;;;;22.89;29.93;100356.63;2035083;87;28339;-58
2022/04/14 11:57:37;;;;;;;9.25;5.40;;;;;;;22.81;29.75;100349.72;2035950;87;29394;-59
2022/04/14 12:00:47;;;;;;;8.00;6.00;;;;;;;22.78;29.57;100356.86;2033538;86;31122;-61
2022/04/14 12:03:49;;;;;;;8.33;5.65;;;;;;;22.78;29.78;100351.39;2028853;87;33055;-59
2022/04/14 12:06:56;;;;;;;9.75;5.85;;;;;;;22.80;29.76;100351.23;2063545;85;29720;-60
2022/04/14 12:10:01;;;;;;;9.18;5.80;;;;;;;22.81;29.73;100347.48;2072071;85;27730;-60
2022/04/14 12:13:08;;;;;;;8.60;5.65;;;;;;;22.81;30.00;100343.39;2053222;85;28707;-59
2022/04/14 12:16:12;;;;;;;13.65;6.35;;;;;;;22.76;29.39;100345.22;2035935;87;31856;-59
2022/04/14 12:19:14;;;;;;;10.60;7.35;;;;;;;22.69;29.72;100345.47;2035471;87;33785;-59
2022/04/14 12:22:16;;;;;;;34.48;21.82;;;;;;;22.67;29.78;100340.18;2046016;86;29453;-68
2022/04/14 12:25:19;;;;;;;13.38;6.90;;;;;;;22.66;29.45;100342.56;2052792;85;27730;-59
2022/04/14 12:28:21;;;;;;;8.88;6.10;;;;;;;22.68;29.64;100339.66;2012708;87;30003;-58
2022/04/14 12:31:25;;;;;;;11.03;5.95;;;;;;;22.73;29.77;100342.30;2032349;87;31448;-68
2022/04/14 12:34:35;;;;;;;8.65;5.53;;;;;;;22.80;29.89;100336.20;2030728;87;33400;-64
2022/04/14 12:37:41;;;;;;;9.60;5.58;;;;;;;22.89;30.16;100332.03;2031110;87;30112;-58
2022/04/14 12:40:56;;;;;;;11.38;6.05;;;;;;;22.97;29.46;100322.21;2034895;85;27667;-59
2022/04/14 12:43:58;;;;;;;10.32;5.90;;;;;;;22.99;29.33;100324.28;2071839;85;28825;-60
2022/04/14 12:47:00;;;;;;;8.98;6.20;;;;;;;23.06;29.58;100327.59;2058317;83;32218;-60
2022/04/14 12:50:05;;;;;;;12.33;6.85;;;;;;;23.11;29.38;100318.92;2049531;86;32821;-58
2022/04/14 12:53:10;;;;;;;9.30;5.40;;;;;;;23.15;29.04;100313.50;2050740;86;29353;-59
2022/04/14 12:56:13;;;;;;;11.10;5.58;;;;;;;23.19;28.90;100313.50;2049224;86;28228;-58
2022/04/14 12:59:18;;;;;;;6.03;4.72;;;;;;;23.22;28.93;100302.81;2050794;86;29538;-58
2022/04/14 13:02:23;;;;;;;13.03;7.47;;;;;;;23.26;28.81;100301.98;2050113;86;31154;-58
2022/04/14 13:05:28;;;;;;;12.17;6.67;;;;;;;23.28;28.64;100304.05;2045475;86;34207;-59
2022/04/14 13:08:34;;;;;;;11.18;5.08;;;;;;;23.31;28.93;100298.27;2012645;88;29338;-60
2022/04/14 13:11:46;;;;;;;8.75;5.17;;;;;;;23.33;28.58;100290.25;1998771;89;28005;-60
2022/04/14 13:14:47;;;;;;;10.20;4.20;;;;;;;23.36;28.69;100287.69;1997119;89;29991;-59
2022/04/14 13:17:50;;;;;;;9.95;5.17;;;;;;;23.37;28.51;100279.84;2015393;86;32252;-59
2022/04/14 13:20:53;;;;;;;7.87;5.17;;;;;;;23.38;28.12;100282.08;2050814;86;34374;-59
2022/04/14 13:23:55;;;;;;;4.65;3.87;;;;;;;23.31;27.80;100271.78;2032085;87;29336;-59
2022/04/14 13:26:58;;;;;;;8.78;3.85;;;;;;;23.23;27.90;100276.33;2031328;87;27688;-59
2022/04/14 13:30:01;;;;;;;10.85;4.03;;;;;;;23.16;28.09;100272.86;2029830;86;28648;-58
2022/04/14 13:33:04;;;;;;;11.30;4.20;;;;;;;23.12;27.96;100277.41;2029201;87;31739;-58
2022/04/14 13:36:06;;;;;;;8.60;4.75;;;;;;;23.11;28.29;100273.83;2031735;86;33938;-58
2022/04/14 13:39:08;;;;;;;6.08;4.05;;;;;;;23.11;28.40;100271.09;2050822;86;30179;-59
2022/04/14 13:42:12;;;;;;;8.23;5.12;;;;;;;23.15;28.29;100275.23;2051148;86;27619;-60
2022/04/14 13:45:14;;;;;;;8.93;4.47;;;;;;;23.19;28.29;100277.97;2046425;86;29936;-59
2022/04/14 13:48:16;;;;;;;10.78;3.62;;;;;;;23.25;28.06;100273.77;2031803;86;32311;-58
2022/04/14 13:51:18;;;;;;;9.15;3.77;;;;;;;23.30;28.15;100271.95;2103269;84;34393;-58
2022/04/14 13:54:20;;;;;;;7.03;3.65;;;;;;;23.39;28.18;100272.34;2087802;84;30825;-59
2022/04/14 13:57:22;;;;;;;5.92;3.83;;;;;;;23.48;27.93;100270.02;2082904;84;27619;-59
2022/04/14 14:00:25;;;;;;;7.00;4.50;;;;;;;23.58;27.86;100265.78;2106529;84;29916;-59
2022/04/14 14:03:31;;;;;;;4.97;4.08;;;;;;;23.70;28.15;100268.26;2072368;84;31044;-59
2022/04/14 14:06:34;;;;;;;14.13;4.28;;;;;;;23.75;28.07;100268.11;2070546;85;33718;-60